Allegri — 9HZP8 — position and weather

sailwx.info

Track history (hours):
 
Tides and Currents Weather Stations Pressure Air Temp Water Temp Dewpoint Dewpoint Depression Visibility Wind Speed Wind Dir Waves Ship Positions

Allegri

Last reported at 2017-Sep-19 15:51 UTC. Time now 2017-Sep-20 02:13 UTC.
Position N 36°34' E 015°53'.

Length 169 m; draft 6.2 m.

Type: Ship (hazmat cat A). MMSI: 256648972.

Date/timePositionNaut miles runAvg speedWind from/ knotsBaromVisibWave heightAir tempDewpointWater temp
2017-Sep-19 15:51N 36°34' E 015°53'411.3
2017-Sep-19 15:30N 36°34' E 015°48'611.4
2017-Sep-19 15:00N 36°34' E 015°41'611.3
2017-Sep-19 14:29N 36°34' E 015°34'610.8
2017-Sep-19 13:55N 36°35' E 015°27'711.2
2017-Sep-19 13:19N 36°35' E 015°18'411.4
2017-Sep-19 12:57N 36°35' E 015°13'511.5
2017-Sep-19 12:30N 36°36' E 015°07'611.4
2017-Sep-19 12:00N 36°36' E 014°60'611.6
2017-Sep-19 11:30N 36°36' E 014°52'611.6
2017-Sep-19 11:00N 36°37' E 014°45'611.6
2017-Sep-19 10:30N 36°38' E 014°38'611.7
2017-Sep-19 10:00N 36°40' E 014°31'4312.2
2017-Sep-19 06:30N 36°53' E 013°40'2512.1
2017-Sep-19 04:26N 37°04' E 013°12'512.0
2017-Sep-19 03:59N 37°07' E 013°06'611.9
2017-Sep-19 03:30N 37°09' E 012°60'711.8
2017-Sep-19 02:52N 37°12' E 012°51'411.6
2017-Sep-19 02:30N 37°14' E 012°47'612.0
2017-Sep-19 01:59N 37°16' E 012°39'912.1
2017-Sep-19 01:16N 37°19' E 012°29'1511.7
2017-Sep-19 00:01N 37°25' E 012°12'111.5
2017-Sep-18 23:57N 37°25' E 012°11'511.6
2017-Sep-18 23:29N 37°28' E 012°06'611.4
2017-Sep-18 23:00N 37°30' E 011°59'1311.5
2017-Sep-18 21:52N 37°38' E 011°46'411.5
2017-Sep-18 21:30N 37°41' E 011°42'9611.5
2017-Sep-18 13:09N 37°56' E 009°42'213.5
2017-Sep-18 12:59N 37°56' E 009°39'  
2017-Sep-16 05:22N 36°01' W 005°11'617.6
2017-Sep-16 05:00N 35°59' W 005°19'1017.8
2017-Sep-16 04:28N 35°57' W 005°30'1316.4
2017-Sep-16 03:40N 35°54' W 005°46'6913.0
2017-Sep-15 22:22N 35°05' W 006°46'613.4
2017-Sep-15 21:54N 34°60' W 006°49'513.6
2017-Sep-15 21:30N 34°54' W 006°51'713.7
2017-Sep-15 21:00N 34°48' W 006°54'713.4
2017-Sep-15 20:30N 34°42' W 006°57'713.2
2017-Sep-15 20:00N 34°36' W 007°01'612.6
2017-Sep-15 19:30N 34°30' W 007°03'612.5
2017-Sep-15 18:59N 34°24' W 007°05'713.3
2017-Sep-15 18:28N 34°18' W 007°09'913.3
2017-Sep-15 17:48N 34°10' W 007°14'1913.1
2017-Sep-15 16:21N 33°54' W 007°26'512.7
2017-Sep-15 15:59N 33°51' W 007°30'8 0.3
2017-Sep-14 11:53N 33°58' W 007°25'1513.2
2017-Sep-14 10:44N 34°11' W 007°17'2013.2
2017-Sep-14 09:15N 34°29' W 007°06'712.8
2017-Sep-14 08:42N 34°35' W 007°02'513.1
2017-Sep-14 08:19N 34°39' W 006°59'413.2
2017-Sep-14 08:00N 34°43' W 006°57'4513.5
2017-Sep-14 04:38N 35°24' W 006°33'213.5
2017-Sep-14 04:30N 35°25' W 006°32'3713.0
2017-Sep-14 01:38N 35°57' W 006°07'213.6
2017-Sep-14 01:30N 35°57' W 006°05'814.0
2017-Sep-14 00:58N 35°57' W 005°55'1013.9
2017-Sep-14 00:16N 35°57' W 005°43'613.5
2017-Sep-13 23:49N 35°57' W 005°36'412.7
2017-Sep-13 23:30N 35°57' W 005°31'1 0.1
2017-Sep-13 08:28N 35°56' W 005°30'612.3
2017-Sep-13 08:00N 35°60' W 005°25'613.0
2017-Sep-13 07:30N 36°02' W 005°17'33814.1
2017-Sep-12 07:37N 37°14' E 001°35'214.9
2017-Sep-12 07:30N 37°14' E 001°37'815.0
2017-Sep-12 07:00N 37°16' E 001°46'715.0
2017-Sep-12 06:30N 37°18' E 001°55'814.8
2017-Sep-12 05:57N 37°20' E 002°05'614.4
2017-Sep-12 05:30N 37°21' E 002°13'714.3
2017-Sep-12 05:00N 37°22' E 002°22'714.5
2017-Sep-12 04:31N 37°22' E 002°31'1814.6
2017-Sep-12 03:16N 37°23' E 002°54'414.4
2017-Sep-12 03:00N 37°23' E 002°58'714.2
2017-Sep-12 02:30N 37°23' E 003°07'714.2
2017-Sep-12 02:00N 37°23' E 003°16'714.3
2017-Sep-12 01:30N 37°23' E 003°25'914.4
2017-Sep-12 00:53N 37°24' E 003°36'514.3
2017-Sep-12 00:30N 37°24' E 003°43'814.4
2017-Sep-11 23:56N 37°24' E 003°54'614.5
2017-Sep-11 23:30N 37°24' E 004°02'714.7
2017-Sep-11 23:00N 37°24' E 004°11'714.7
2017-Sep-11 22:30N 37°24' E 004°20'814.7
2017-Sep-11 21:57N 37°24' E 004°30'714.4
2017-Sep-11 21:30N 37°24' E 004°38'2114.4
2017-Sep-11 20:03N 37°23' E 005°05'34212.4
2017-Sep-10 16:29N 36°58' E 012°13'714.0
2017-Sep-10 16:00N 36°56' E 012°20'714.3
2017-Sep-10 15:30N 36°55' E 012°29'714.4
2017-Sep-10 15:00N 36°55' E 012°38'1414.3
2017-Sep-10 14:00N 36°55' E 012°56'714.3
2017-Sep-10 13:31N 36°55' E 013°05'713.8
2017-Sep-10 13:00N 36°54' E 013°14'713.7
2017-Sep-10 12:30N 36°53' E 013°22'713.5
2017-Sep-10 12:00N 36°52' E 013°30'713.3
2017-Sep-10 11:30N 36°51' E 013°39'612.6
2017-Sep-10 11:00N 36°50' E 013°46'612.9
2017-Sep-10 10:30N 36°47' E 013°53'713.3
2017-Sep-10 10:00N 36°43' E 014°00'713.5
2017-Sep-10 09:30N 36°40' E 014°08'713.7
2017-Sep-10 09:00N 36°37' E 014°16'714.0
2017-Sep-10 08:30N 36°34' E 014°23'714.3
2017-Sep-10 08:00N 36°30' E 014°31'714.4
2017-Sep-10 07:30N 36°27' E 014°39'714.3
2017-Sep-10 06:59N 36°26' E 014°48'714.1
2017-Sep-10 06:29N 36°26' E 014°57'714.7
2017-Sep-10 06:00N 36°26' E 015°06'815.1
2017-Sep-10 05:30N 36°26' E 015°15'  
Track history (hours):
 
Tides and Currents Weather Stations Pressure Air Temp Water Temp Dewpoint Dewpoint Depression Visibility Wind Speed Wind Dir Waves Ship Positions

Allegri

Last reported at 2017-Sep-19 15:51 UTC. Time now 2017-Sep-20 02:13 UTC.
Position N 36°34' E 015°53'.

Length 169 m; draft 6.2 m.

Type: Ship (hazmat cat A). MMSI: 256648972.

Date/timePositionNaut miles runAvg speedWind from/ knotsBaromVisibWave heightAir tempDewpointWater temp
2017-Sep-19 15:51N 36°34' E 015°53'411.3
2017-Sep-19 15:30N 36°34' E 015°48'611.4
2017-Sep-19 15:00N 36°34' E 015°41'611.3
2017-Sep-19 14:29N 36°34' E 015°34'610.8
2017-Sep-19 13:55N 36°35' E 015°27'711.2
2017-Sep-19 13:19N 36°35' E 015°18'411.4
2017-Sep-19 12:57N 36°35' E 015°13'511.5
2017-Sep-19 12:30N 36°36' E 015°07'611.4
2017-Sep-19 12:00N 36°36' E 014°60'611.6
2017-Sep-19 11:30N 36°36' E 014°52'611.6
2017-Sep-19 11:00N 36°37' E 014°45'611.6
2017-Sep-19 10:30N 36°38' E 014°38'611.7
2017-Sep-19 10:00N 36°40' E 014°31'4312.2
2017-Sep-19 06:30N 36°53' E 013°40'2512.1
2017-Sep-19 04:26N 37°04' E 013°12'512.0
2017-Sep-19 03:59N 37°07' E 013°06'611.9
2017-Sep-19 03:30N 37°09' E 012°60'711.8
2017-Sep-19 02:52N 37°12' E 012°51'411.6
2017-Sep-19 02:30N 37°14' E 012°47'612.0
2017-Sep-19 01:59N 37°16' E 012°39'912.1
2017-Sep-19 01:16N 37°19' E 012°29'1511.7
2017-Sep-19 00:01N 37°25' E 012°12'111.5
2017-Sep-18 23:57N 37°25' E 012°11'511.6
2017-Sep-18 23:29N 37°28' E 012°06'611.4
2017-Sep-18 23:00N 37°30' E 011°59'1311.5
2017-Sep-18 21:52N 37°38' E 011°46'411.5
2017-Sep-18 21:30N 37°41' E 011°42'9611.5
2017-Sep-18 13:09N 37°56' E 009°42'213.5
2017-Sep-18 12:59N 37°56' E 009°39'  
2017-Sep-16 05:22N 36°01' W 005°11'617.6
2017-Sep-16 05:00N 35°59' W 005°19'1017.8
2017-Sep-16 04:28N 35°57' W 005°30'1316.4
2017-Sep-16 03:40N 35°54' W 005°46'6913.0
2017-Sep-15 22:22N 35°05' W 006°46'613.4
2017-Sep-15 21:54N 34°60' W 006°49'513.6
2017-Sep-15 21:30N 34°54' W 006°51'713.7
2017-Sep-15 21:00N 34°48' W 006°54'713.4
2017-Sep-15 20:30N 34°42' W 006°57'713.2
2017-Sep-15 20:00N 34°36' W 007°01'612.6
2017-Sep-15 19:30N 34°30' W 007°03'612.5
2017-Sep-15 18:59N 34°24' W 007°05'713.3
2017-Sep-15 18:28N 34°18' W 007°09'913.3
2017-Sep-15 17:48N 34°10' W 007°14'1913.1
2017-Sep-15 16:21N 33°54' W 007°26'512.7
2017-Sep-15 15:59N 33°51' W 007°30'8 0.3
2017-Sep-14 11:53N 33°58' W 007°25'1513.2
2017-Sep-14 10:44N 34°11' W 007°17'2013.2
2017-Sep-14 09:15N 34°29' W 007°06'712.8
2017-Sep-14 08:42N 34°35' W 007°02'513.1
2017-Sep-14 08:19N 34°39' W 006°59'413.2
2017-Sep-14 08:00N 34°43' W 006°57'4513.5
2017-Sep-14 04:38N 35°24' W 006°33'213.5
2017-Sep-14 04:30N 35°25' W 006°32'3713.0
2017-Sep-14 01:38N 35°57' W 006°07'213.6
2017-Sep-14 01:30N 35°57' W 006°05'814.0
2017-Sep-14 00:58N 35°57' W 005°55'1013.9
2017-Sep-14 00:16N 35°57' W 005°43'613.5
2017-Sep-13 23:49N 35°57' W 005°36'412.7
2017-Sep-13 23:30N 35°57' W 005°31'1 0.1
2017-Sep-13 08:28N 35°56' W 005°30'612.3
2017-Sep-13 08:00N 35°60' W 005°25'613.0
2017-Sep-13 07:30N 36°02' W 005°17'33814.1
2017-Sep-12 07:37N 37°14' E 001°35'214.9
2017-Sep-12 07:30N 37°14' E 001°37'815.0
2017-Sep-12 07:00N 37°16' E 001°46'715.0
2017-Sep-12 06:30N 37°18' E 001°55'814.8
2017-Sep-12 05:57N 37°20' E 002°05'614.4
2017-Sep-12 05:30N 37°21' E 002°13'714.3
2017-Sep-12 05:00N 37°22' E 002°22'714.5
2017-Sep-12 04:31N 37°22' E 002°31'1814.6
2017-Sep-12 03:16N 37°23' E 002°54'414.4
2017-Sep-12 03:00N 37°23' E 002°58'714.2
2017-Sep-12 02:30N 37°23' E 003°07'714.2
2017-Sep-12 02:00N 37°23' E 003°16'714.3
2017-Sep-12 01:30N 37°23' E 003°25'914.4
2017-Sep-12 00:53N 37°24' E 003°36'514.3
2017-Sep-12 00:30N 37°24' E 003°43'814.4
2017-Sep-11 23:56N 37°24' E 003°54'614.5
2017-Sep-11 23:30N 37°24' E 004°02'714.7
2017-Sep-11 23:00N 37°24' E 004°11'714.7
2017-Sep-11 22:30N 37°24' E 004°20'814.7
2017-Sep-11 21:57N 37°24' E 004°30'714.4
2017-Sep-11 21:30N 37°24' E 004°38'2114.4
2017-Sep-11 20:03N 37°23' E 005°05'34212.4
2017-Sep-10 16:29N 36°58' E 012°13'714.0
2017-Sep-10 16:00N 36°56' E 012°20'714.3
2017-Sep-10 15:30N 36°55' E 012°29'714.4
2017-Sep-10 15:00N 36°55' E 012°38'1414.3
2017-Sep-10 14:00N 36°55' E 012°56'714.3
2017-Sep-10 13:31N 36°55' E 013°05'713.8
2017-Sep-10 13:00N 36°54' E 013°14'713.7
2017-Sep-10 12:30N 36°53' E 013°22'713.5
2017-Sep-10 12:00N 36°52' E 013°30'713.3
2017-Sep-10 11:30N 36°51' E 013°39'612.6
2017-Sep-10 11:00N 36°50' E 013°46'612.9
2017-Sep-10 10:30N 36°47' E 013°53'713.3
2017-Sep-10 10:00N 36°43' E 014°00'713.5
2017-Sep-10 09:30N 36°40' E 014°08'713.7
2017-Sep-10 09:00N 36°37' E 014°16'714.0
2017-Sep-10 08:30N 36°34' E 014°23'714.3
2017-Sep-10 08:00N 36°30' E 014°31'714.4
2017-Sep-10 07:30N 36°27' E 014°39'714.3
2017-Sep-10 06:59N 36°26' E 014°48'714.1
2017-Sep-10 06:29N 36°26' E 014°57'714.7
2017-Sep-10 06:00N 36°26' E 015°06'815.1
2017-Sep-10 05:30N 36°26' E 015°15'  

Dump ship's entire track history